sensor_id;sensor_type;location;lat;lon;timestamp;temperature;humidity
48007;DHT22;33771;48.180;11.400;2022-10-16T00:00:41;12.00;99.90
48007;DHT22;33771;48.180;11.400;2022-10-16T00:03:08;12.00;99.90
48007;DHT22;33771;48.180;11.400;2022-10-16T00:05:39;12.00;99.90
48007;DHT22;33771;48.180;11.400;2022-10-16T00:08:05;12.00;99.90
48007;DHT22;33771;48.180;11.400;2022-10-16T00:10:31;12.10;99.90
48007;DHT22;33771;48.180;11.400;2022-10-16T00:12:57;12.10;99.90
48007;DHT22;33771;48.180;11.400;2022-10-16T00:15:22;12.10;99.90
48007;DHT22;33771;48.180;11.400;2022-10-16T00:17:48;12.10;99.90
48007;DHT22;33771;48.180;11.400;2022-10-16T00:20:13;12.10;99.90
48007;DHT22;33771;48.180;11.400;2022-10-16T00:22:39;12.10;99.90
48007;DHT22;33771;48.180;11.400;2022-10-16T00:25:05;12.20;99.90
48007;DHT22;33771;48.180;11.400;2022-10-16T00:27:31;12.20;99.90
48007;DHT22;33771;48.180;11.400;2022-10-16T00:29:56;12.20;99.90
48007;DHT22;33771;48.180;11.400;2022-10-16T00:32:22;12.20;99.90
48007;DHT22;33771;48.180;11.400;2022-10-16T00:34:47;12.20;99.90
48007;DHT22;33771;48.180;11.400;2022-10-16T00:37:13;12.20;99.90
48007;DHT22;33771;48.180;11.400;2022-10-16T00:39:39;12.20;99.90
48007;DHT22;33771;48.180;11.400;2022-10-16T00:42:05;12.20;99.90
48007;DHT22;33771;48.180;11.400;2022-10-16T00:47:25;12.30;99.90
48007;DHT22;33771;48.180;11.400;2022-10-16T00:49:56;12.30;99.90
48007;DHT22;33771;48.180;11.400;2022-10-16T00:52:24;12.30;99.90
48007;DHT22;33771;48.180;11.400;2022-10-16T00:54:50;12.30;99.90
48007;DHT22;33771;48.180;11.400;2022-10-16T00:57:17;12.30;99.90
48007;DHT22;33771;48.180;11.400;2022-10-16T00:59:42;12.30;99.90
48007;DHT22;33771;48.180;11.400;2022-10-16T01:02:11;12.30;99.90
48007;DHT22;33771;48.180;11.400;2022-10-16T01:04:43;12.40;99.90
48007;DHT22;33771;48.180;11.400;2022-10-16T01:07:49;12.30;99.90
48007;DHT22;33771;48.180;11.400;2022-10-16T01:13:00;12.40;99.90
48007;DHT22;33771;48.180;11.400;2022-10-16T01:15:50;12.30;99.90
48007;DHT22;33771;48.180;11.400;2022-10-16T01:21:03;12.40;99.90
48007;DHT22;33771;48.180;11.400;2022-10-16T01:29:27;12.40;99.90
48007;DHT22;33771;48.180;11.400;2022-10-16T01:32:01;12.40;99.90
48007;DHT22;33771;48.180;11.400;2022-10-16T01:34:38;12.40;99.90
48007;DHT22;33771;48.180;11.400;2022-10-16T01:37:14;12.40;99.90
48007;DHT22;33771;48.180;11.400;2022-10-16T01:39:42;12.30;99.90
48007;DHT22;33771;48.180;11.400;2022-10-16T01:42:15;12.40;99.90
48007;DHT22;33771;48.180;11.400;2022-10-16T01:44:43;12.30;99.90
48007;DHT22;33771;48.180;11.400;2022-10-16T01:47:13;12.40;99.90
48007;DHT22;33771;48.180;11.400;2022-10-16T01:49:40;12.40;99.90
48007;DHT22;33771;48.180;11.400;2022-10-16T01:52:10;12.30;99.90
48007;DHT22;33771;48.180;11.400;2022-10-16T01:54:40;12.30;99.90
48007;DHT22;33771;48.180;11.400;2022-10-16T01:57:07;12.30;99.90
48007;DHT22;33771;48.180;11.400;2022-10-16T01:59:39;12.30;99.90
48007;DHT22;33771;48.180;11.400;2022-10-16T02:02:09;12.30;99.90
48007;DHT22;33771;48.180;11.400;2022-10-16T02:04:38;12.30;99.90
48007;DHT22;33771;48.180;11.400;2022-10-16T02:07:05;12.30;99.90
48007;DHT22;33771;48.180;11.400;2022-10-16T02:09:33;12.30;99.90
48007;DHT22;33771;48.180;11.400;2022-10-16T02:12:03;12.20;99.90
48007;DHT22;33771;48.180;11.400;2022-10-16T02:14:32;12.20;99.90
48007;DHT22;33771;48.180;11.400;2022-10-16T02:16:58;12.20;99.90
48007;DHT22;33771;48.180;11.400;2022-10-16T02:19:24;12.20;99.90
48007;DHT22;33771;48.180;11.400;2022-10-16T02:24:29;12.20;99.90
48007;DHT22;33771;48.180;11.400;2022-10-16T02:27:01;12.10;99.90
48007;DHT22;33771;48.180;11.400;2022-10-16T02:29:29;12.10;99.90
48007;DHT22;33771;48.180;11.400;2022-10-16T02:32:02;12.10;99.90
48007;DHT22;33771;48.180;11.400;2022-10-16T02:34:31;12.00;99.90
48007;DHT22;33771;48.180;11.400;2022-10-16T02:36:57;12.00;99.90
48007;DHT22;33771;48.180;11.400;2022-10-16T02:39:24;12.00;99.90
48007;DHT22;33771;48.180;11.400;2022-10-16T02:41:50;12.00;99.90
48007;DHT22;33771;48.180;11.400;2022-10-16T02:44:15;12.00;99.90
48007;DHT22;33771;48.180;11.400;2022-10-16T02:46:41;12.00;99.90
48007;DHT22;33771;48.180;11.400;2022-10-16T02:49:06;11.90;99.90
48007;DHT22;33771;48.180;11.400;2022-10-16T02:51:32;11.90;99.90
48007;DHT22;33771;48.180;11.400;2022-10-16T02:53:58;11.90;99.90
48007;DHT22;33771;48.180;11.400;2022-10-16T02:56:23;11.90;99.90
48007;DHT22;33771;48.180;11.400;2022-10-16T02:58:49;11.90;99.90
48007;DHT22;33771;48.180;11.400;2022-10-16T03:01:14;11.90;99.90
48007;DHT22;33771;48.180;11.400;2022-10-16T03:03:42;11.90;99.90
48007;DHT22;33771;48.180;11.400;2022-10-16T03:06:07;11.90;99.90
48007;DHT22;33771;48.180;11.400;2022-10-16T03:08:33;11.90;99.90
48007;DHT22;33771;48.180;11.400;2022-10-16T03:10:59;11.90;99.90
48007;DHT22;33771;48.180;11.400;2022-10-16T03:13:24;11.90;99.90
48007;DHT22;33771;48.180;11.400;2022-10-16T03:15:50;11.90;99.90
48007;DHT22;33771;48.180;11.400;2022-10-16T03:18:15;11.90;99.90
48007;DHT22;33771;48.180;11.400;2022-10-16T03:20:43;12.00;99.90
48007;DHT22;33771;48.180;11.400;2022-10-16T03:23:08;12.00;99.90
48007;DHT22;33771;48.180;11.400;2022-10-16T03:25:34;12.00;99.90
48007;DHT22;33771;48.180;11.400;2022-10-16T03:28:00;12.00;99.90
48007;DHT22;33771;48.180;11.400;2022-10-16T03:30:25;12.10;99.90
48007;DHT22;33771;48.180;11.400;2022-10-16T03:32:51;12.10;99.90
48007;DHT22;33771;48.180;11.400;2022-10-16T03:35:23;12.10;99.90
48007;DHT22;33771;48.180;11.400;2022-10-16T03:37:50;12.10;99.90
48007;DHT22;33771;48.180;11.400;2022-10-16T03:40:16;12.20;99.90
48007;DHT22;33771;48.180;11.400;2022-10-16T03:42:42;12.20;99.90
48007;DHT22;33771;48.180;11.400;2022-10-16T03:45:09;12.20;99.90
48007;DHT22;33771;48.180;11.400;2022-10-16T03:47:35;12.30;99.90
48007;DHT22;33771;48.180;11.400;2022-10-16T03:50:01;12.30;99.90
48007;DHT22;33771;48.180;11.400;2022-10-16T03:52:26;12.30;99.90
48007;DHT22;33771;48.180;11.400;2022-10-16T03:54:52;12.30;99.90
48007;DHT22;33771;48.180;11.400;2022-10-16T03:57:18;12.40;99.90
48007;DHT22;33771;48.180;11.400;2022-10-16T03:59:43;12.40;99.90
48007;DHT22;33771;48.180;11.400;2022-10-16T04:02:09;12.40;99.90
48007;DHT22;33771;48.180;11.400;2022-10-16T04:04:35;12.40;99.90
48007;DHT22;33771;48.180;11.400;2022-10-16T04:07:00;12.40;99.90
48007;DHT22;33771;48.180;11.400;2022-10-16T04:09:26;12.50;99.90
48007;DHT22;33771;48.180;11.400;2022-10-16T04:11:52;12.50;99.90
48007;DHT22;33771;48.180;11.400;2022-10-16T04:14:18;12.50;99.90
48007;DHT22;33771;48.180;11.400;2022-10-16T04:16:44;12.50;99.90
48007;DHT22;33771;48.180;11.400;2022-10-16T04:19:10;12.50;99.90
48007;DHT22;33771;48.180;11.400;2022-10-16T04:21:36;12.50;99.90
48007;DHT22;33771;48.180;11.400;2022-10-16T04:24:02;12.60;99.90
48007;DHT22;33771;48.180;11.400;2022-10-16T04:26:28;12.60;99.90
48007;DHT22;33771;48.180;11.400;2022-10-16T04:28:54;12.60;99.90
48007;DHT22;33771;48.180;11.400;2022-10-16T04:31:20;12.60;99.90
48007;DHT22;33771;48.180;11.400;2022-10-16T04:33:45;12.50;99.90
48007;DHT22;33771;48.180;11.400;2022-10-16T04:36:11;12.50;99.90
48007;DHT22;33771;48.180;11.400;2022-10-16T04:38:37;12.50;99.90
48007;DHT22;33771;48.180;11.400;2022-10-16T04:41:03;12.50;99.90
48007;DHT22;33771;48.180;11.400;2022-10-16T04:43:29;12.50;99.90
48007;DHT22;33771;48.180;11.400;2022-10-16T04:45:55;12.50;99.90
48007;DHT22;33771;48.180;11.400;2022-10-16T04:48:21;12.50;99.90
48007;DHT22;33771;48.180;11.400;2022-10-16T04:50:47;12.60;99.90
48007;DHT22;33771;48.180;11.400;2022-10-16T04:53:13;12.50;99.90
48007;DHT22;33771;48.180;11.400;2022-10-16T04:55:39;12.50;99.90
48007;DHT22;33771;48.180;11.400;2022-10-16T04:58:04;12.50;99.90
48007;DHT22;33771;48.180;11.400;2022-10-16T05:00:30;12.50;99.90
48007;DHT22;33771;48.180;11.400;2022-10-16T05:02:56;12.50;99.90
48007;DHT22;33771;48.180;11.400;2022-10-16T05:05:22;12.50;99.90
48007;DHT22;33771;48.180;11.400;2022-10-16T05:07:48;12.50;99.90
48007;DHT22;33771;48.180;11.400;2022-10-16T05:10:15;12.50;99.90
48007;DHT22;33771;48.180;11.400;2022-10-16T05:12:40;12.50;99.90
48007;DHT22;33771;48.180;11.400;2022-10-16T05:15:06;12.50;99.90
48007;DHT22;33771;48.180;11.400;2022-10-16T05:17:32;12.50;99.90
48007;DHT22;33771;48.180;11.400;2022-10-16T05:19:58;12.50;99.90
48007;DHT22;33771;48.180;11.400;2022-10-16T05:22:23;12.50;99.90
48007;DHT22;33771;48.180;11.400;2022-10-16T05:24:49;12.50;99.90
48007;DHT22;33771;48.180;11.400;2022-10-16T05:27:14;12.50;99.90
48007;DHT22;33771;48.180;11.400;2022-10-16T05:29:48;12.50;99.90
48007;DHT22;33771;48.180;11.400;2022-10-16T05:32:15;12.50;99.90
48007;DHT22;33771;48.180;11.400;2022-10-16T05:34:41;12.50;99.90
48007;DHT22;33771;48.180;11.400;2022-10-16T05:37:06;12.50;99.90
48007;DHT22;33771;48.180;11.400;2022-10-16T05:39:32;12.50;99.90
48007;DHT22;33771;48.180;11.400;2022-10-16T05:41:57;12.50;99.90
48007;DHT22;33771;48.180;11.400;2022-10-16T05:44:23;12.60;99.90
48007;DHT22;33771;48.180;11.400;2022-10-16T05:46:49;12.50;99.90
48007;DHT22;33771;48.180;11.400;2022-10-16T05:49:14;12.50;99.90
48007;DHT22;33771;48.180;11.400;2022-10-16T05:51:40;12.50;99.90
48007;DHT22;33771;48.180;11.400;2022-10-16T05:54:06;12.50;99.90
48007;DHT22;33771;48.180;11.400;2022-10-16T05:56:32;12.50;99.90
48007;DHT22;33771;48.180;11.400;2022-10-16T05:58:58;12.50;99.90
48007;DHT22;33771;48.180;11.400;2022-10-16T06:01:23;12.40;99.90
48007;DHT22;33771;48.180;11.400;2022-10-16T06:03:51;12.40;99.90
48007;DHT22;33771;48.180;11.400;2022-10-16T06:06:19;12.40;99.90
48007;DHT22;33771;48.180;11.400;2022-10-16T06:08:47;12.30;99.90
48007;DHT22;33771;48.180;11.400;2022-10-16T06:11:18;12.30;99.90
48007;DHT22;33771;48.180;11.400;2022-10-16T06:13:44;12.30;99.90
48007;DHT22;33771;48.180;11.400;2022-10-16T06:16:12;12.30;99.90
48007;DHT22;33771;48.180;11.400;2022-10-16T06:18:38;12.20;99.90
48007;DHT22;33771;48.180;11.400;2022-10-16T06:21:17;12.20;99.90
48007;DHT22;33771;48.180;11.400;2022-10-16T06:23:42;12.20;99.90
48007;DHT22;33771;48.180;11.400;2022-10-16T06:26:10;12.20;99.90
48007;DHT22;33771;48.180;11.400;2022-10-16T06:28:37;12.20;99.90
48007;DHT22;33771;48.180;11.400;2022-10-16T06:31:04;12.20;99.90
48007;DHT22;33771;48.180;11.400;2022-10-16T06:33:30;12.20;99.90
48007;DHT22;33771;48.180;11.400;2022-10-16T06:36:13;12.10;99.90
48007;DHT22;33771;48.180;11.400;2022-10-16T06:38:40;12.10;99.90
48007;DHT22;33771;48.180;11.400;2022-10-16T06:41:07;12.10;99.90
48007;DHT22;33771;48.180;11.400;2022-10-16T06:43:33;12.10;99.90
48007;DHT22;33771;48.180;11.400;2022-10-16T06:46:01;12.10;99.90
48007;DHT22;33771;48.180;11.400;2022-10-16T06:48:28;12.10;99.90
48007;DHT22;33771;48.180;11.400;2022-10-16T06:51:09;12.10;99.90
48007;DHT22;33771;48.180;11.400;2022-10-16T06:53:38;12.10;99.90
48007;DHT22;33771;48.180;11.400;2022-10-16T06:56:12;12.00;99.90
48007;DHT22;33771;48.180;11.400;2022-10-16T06:58:39;12.10;99.90
48007;DHT22;33771;48.180;11.400;2022-10-16T07:01:05;12.10;99.90
48007;DHT22;33771;48.180;11.400;2022-10-16T07:03:31;12.10;99.90
48007;DHT22;33771;48.180;11.400;2022-10-16T07:05:57;12.10;99.90
48007;DHT22;33771;48.180;11.400;2022-10-16T07:08:26;12.10;99.90
48007;DHT22;33771;48.180;11.400;2022-10-16T07:10:58;12.20;99.90
48007;DHT22;33771;48.180;11.400;2022-10-16T07:13:25;12.20;99.90
48007;DHT22;33771;48.180;11.400;2022-10-16T07:15:51;12.30;99.90
48007;DHT22;33771;48.180;11.400;2022-10-16T07:18:19;12.40;99.90
48007;DHT22;33771;48.180;11.400;2022-10-16T07:20:45;12.50;99.90
48007;DHT22;33771;48.180;11.400;2022-10-16T07:23:11;12.70;99.90
48007;DHT22;33771;48.180;11.400;2022-10-16T07:25:36;12.80;99.90
48007;DHT22;33771;48.180;11.400;2022-10-16T07:28:02;13.00;99.90
48007;DHT22;33771;48.180;11.400;2022-10-16T07:30:28;13.10;99.90
48007;DHT22;33771;48.180;11.400;2022-10-16T07:32:53;13.30;99.90
48007;DHT22;33771;48.180;11.400;2022-10-16T07:35:19;13.40;99.90
48007;DHT22;33771;48.180;11.400;2022-10-16T07:37:45;13.50;99.90
48007;DHT22;33771;48.180;11.400;2022-10-16T07:40:11;13.70;99.90
48007;DHT22;33771;48.180;11.400;2022-10-16T07:42:37;13.70;99.90
48007;DHT22;33771;48.180;11.400;2022-10-16T07:45:03;13.80;99.90
48007;DHT22;33771;48.180;11.400;2022-10-16T07:47:28;14.00;99.90
48007;DHT22;33771;48.180;11.400;2022-10-16T07:49:54;14.10;99.90
48007;DHT22;33771;48.180;11.400;2022-10-16T07:52:19;14.30;99.90
48007;DHT22;33771;48.180;11.400;2022-10-16T07:54:45;14.50;99.90
48007;DHT22;33771;48.180;11.400;2022-10-16T07:57:11;14.70;99.90
48007;DHT22;33771;48.180;11.400;2022-10-16T07:59:39;14.90;99.90
48007;DHT22;33771;48.180;11.400;2022-10-16T08:02:05;15.10;99.90
48007;DHT22;33771;48.180;11.400;2022-10-16T08:04:31;15.30;99.90
48007;DHT22;33771;48.180;11.400;2022-10-16T08:06:56;15.50;99.90
48007;DHT22;33771;48.180;11.400;2022-10-16T08:09:22;15.80;99.90
48007;DHT22;33771;48.180;11.400;2022-10-16T08:11:47;16.00;99.90
48007;DHT22;33771;48.180;11.400;2022-10-16T08:14:13;16.20;99.90
48007;DHT22;33771;48.180;11.400;2022-10-16T08:16:38;16.40;99.90
48007;DHT22;33771;48.180;11.400;2022-10-16T08:19:04;16.60;99.90
48007;DHT22;33771;48.180;11.400;2022-10-16T08:21:29;16.80;99.90
48007;DHT22;33771;48.180;11.400;2022-10-16T08:23:55;17.00;99.90
48007;DHT22;33771;48.180;11.400;2022-10-16T08:26:21;17.20;99.90
48007;DHT22;33771;48.180;11.400;2022-10-16T08:28:49;17.40;99.90
48007;DHT22;33771;48.180;11.400;2022-10-16T08:31:16;17.60;99.90
48007;DHT22;33771;48.180;11.400;2022-10-16T08:33:43;17.80;99.90
48007;DHT22;33771;48.180;11.400;2022-10-16T08:36:11;18.10;99.90
48007;DHT22;33771;48.180;11.400;2022-10-16T08:38:37;18.30;99.90
48007;DHT22;33771;48.180;11.400;2022-10-16T08:49:27;19.10;99.90
48007;DHT22;33771;48.180;11.400;2022-10-16T08:51:53;19.30;99.90
48007;DHT22;33771;48.180;11.400;2022-10-16T08:54:36;19.40;99.90
48007;DHT22;33771;48.180;11.400;2022-10-16T08:57:21;19.50;99.90
48007;DHT22;33771;48.180;11.400;2022-10-16T08:59:47;19.80;99.90
48007;DHT22;33771;48.180;11.400;2022-10-16T09:02:31;20.00;99.90
48007;DHT22;33771;48.180;11.400;2022-10-16T09:05:18;20.20;99.90
48007;DHT22;33771;48.180;11.400;2022-10-16T09:07:54;20.40;99.90
48007;DHT22;33771;48.180;11.400;2022-10-16T09:10:38;20.60;99.90
48007;DHT22;33771;48.180;11.400;2022-10-16T09:13:27;20.70;99.90
48007;DHT22;33771;48.180;11.400;2022-10-16T09:21:30;20.90;99.90
48007;DHT22;33771;48.180;11.400;2022-10-16T09:24:14;21.20;99.90
48007;DHT22;33771;48.180;11.400;2022-10-16T09:26:40;21.30;99.90
48007;DHT22;33771;48.180;11.400;2022-10-16T09:29:06;21.40;99.90
48007;DHT22;33771;48.180;11.400;2022-10-16T09:31:32;21.50;99.90
48007;DHT22;33771;48.180;11.400;2022-10-16T09:34:03;21.50;99.90
48007;DHT22;33771;48.180;11.400;2022-10-16T09:36:36;21.60;99.90
48007;DHT22;33771;48.180;11.400;2022-10-16T09:39:09;21.60;99.90
48007;DHT22;33771;48.180;11.400;2022-10-16T09:41:39;21.60;99.90
48007;DHT22;33771;48.180;11.400;2022-10-16T09:44:39;21.70;99.90
48007;DHT22;33771;48.180;11.400;2022-10-16T09:49:38;21.80;99.90
48007;DHT22;33771;48.180;11.400;2022-10-16T09:52:15;22.10;99.90
48007;DHT22;33771;48.180;11.400;2022-10-16T09:55:01;22.20;99.90
48007;DHT22;33771;48.180;11.400;2022-10-16T09:57:27;22.50;99.90
48007;DHT22;33771;48.180;11.400;2022-10-16T09:59:57;22.50;99.90
48007;DHT22;33771;48.180;11.400;2022-10-16T10:02:43;22.60;99.90
48007;DHT22;33771;48.180;11.400;2022-10-16T10:05:23;22.70;99.90
48007;DHT22;33771;48.180;11.400;2022-10-16T10:08:01;22.70;99.90
48007;DHT22;33771;48.180;11.400;2022-10-16T10:10:34;22.80;99.90
48007;DHT22;33771;48.180;11.400;2022-10-16T10:13:02;22.80;99.90
48007;DHT22;33771;48.180;11.400;2022-10-16T10:15:33;23.00;99.90
48007;DHT22;33771;48.180;11.400;2022-10-16T10:18:00;23.20;99.90
48007;DHT22;33771;48.180;11.400;2022-10-16T10:20:33;23.40;99.90
48007;DHT22;33771;48.180;11.400;2022-10-16T10:23:00;23.40;99.90
48007;DHT22;33771;48.180;11.400;2022-10-16T10:28:35;23.30;99.90
48007;DHT22;33771;48.180;11.400;2022-10-16T10:36:48;23.60;99.90
48007;DHT22;33771;48.180;11.400;2022-10-16T10:39:32;23.60;99.90
48007;DHT22;33771;48.180;11.400;2022-10-16T10:52:48;23.90;99.90
48007;DHT22;33771;48.180;11.400;2022-10-16T10:58:14;24.00;99.90
48007;DHT22;33771;48.180;11.400;2022-10-16T11:06:20;24.00;99.90
48007;DHT22;33771;48.180;11.400;2022-10-16T11:12:03;24.70;99.90
48007;DHT22;33771;48.180;11.400;2022-10-16T11:14:36;24.70;99.90
48007;DHT22;33771;48.180;11.400;2022-10-16T11:17:11;24.80;99.90
48007;DHT22;33771;48.180;11.400;2022-10-16T11:19:53;24.90;99.90
48007;DHT22;33771;48.180;11.400;2022-10-16T11:22:38;24.80;99.90
48007;DHT22;33771;48.180;11.400;2022-10-16T11:25:24;24.90;99.90
48007;DHT22;33771;48.180;11.400;2022-10-16T11:28:03;25.00;99.90
48007;DHT22;33771;48.180;11.400;2022-10-16T11:30:39;25.00;99.90
48007;DHT22;33771;48.180;11.400;2022-10-16T11:35:55;25.20;99.90
48007;DHT22;33771;48.180;11.400;2022-10-16T11:44:09;25.80;99.90
48007;DHT22;33771;48.180;11.400;2022-10-16T11:46:42;25.90;99.90
48007;DHT22;33771;48.180;11.400;2022-10-16T11:49:18;26.10;99.90
48007;DHT22;33771;48.180;11.400;2022-10-16T11:52:13;26.10;99.90
48007;DHT22;33771;48.180;11.400;2022-10-16T11:55:36;26.00;99.90
48007;DHT22;33771;48.180;11.400;2022-10-16T11:57:52;26.00;99.90
48007;DHT22;33771;48.180;11.400;2022-10-16T12:00:33;26.10;99.90
48007;DHT22;33771;48.180;11.400;2022-10-16T12:08:59;26.00;99.90
48007;DHT22;33771;48.180;11.400;2022-10-16T12:16:39;25.80;99.90
48007;DHT22;33771;48.180;11.400;2022-10-16T12:19:17;25.90;99.90
48007;DHT22;33771;48.180;11.400;2022-10-16T12:21:43;25.90;99.90
48007;DHT22;33771;48.180;11.400;2022-10-16T12:27:01;25.90;99.90
48007;DHT22;33771;48.180;11.400;2022-10-16T12:29:45;26.20;99.90
48007;DHT22;33771;48.180;11.400;2022-10-16T12:32:33;26.10;99.90
48007;DHT22;33771;48.180;11.400;2022-10-16T12:35:01;26.40;99.90
48007;DHT22;33771;48.180;11.400;2022-10-16T12:37:35;26.40;99.90
48007;DHT22;33771;48.180;11.400;2022-10-16T12:40:15;26.30;99.90
48007;DHT22;33771;48.180;11.400;2022-10-16T12:42:41;26.30;99.90
48007;DHT22;33771;48.180;11.400;2022-10-16T12:45:42;26.40;99.90
48007;DHT22;33771;48.180;11.400;2022-10-16T12:48:22;26.90;99.90
48007;DHT22;33771;48.180;11.400;2022-10-16T12:50:47;26.60;99.90
48007;DHT22;33771;48.180;11.400;2022-10-16T12:53:21;26.90;99.90
48007;DHT22;33771;48.180;11.400;2022-10-16T12:56:20;26.70;99.70
48007;DHT22;33771;48.180;11.400;2022-10-16T13:01:29;26.40;99.90
48007;DHT22;33771;48.180;11.400;2022-10-16T13:07:03;26.40;99.90
48007;DHT22;33771;48.180;11.400;2022-10-16T13:15:06;26.10;99.90
48007;DHT22;33771;48.180;11.400;2022-10-16T13:17:56;26.00;99.90
48007;DHT22;33771;48.180;11.400;2022-10-16T13:20:35;25.90;99.90
48007;DHT22;33771;48.180;11.400;2022-10-16T13:23:25;26.10;99.90
48007;DHT22;33771;48.180;11.400;2022-10-16T13:26:17;26.20;99.90
48007;DHT22;33771;48.180;11.400;2022-10-16T13:28:46;26.00;99.90
48007;DHT22;33771;48.180;11.400;2022-10-16T13:31:19;25.90;99.90
48007;DHT22;33771;48.180;11.400;2022-10-16T13:33:53;25.80;99.90
48007;DHT22;33771;48.180;11.400;2022-10-16T13:36:27;25.80;99.90
48007;DHT22;33771;48.180;11.400;2022-10-16T13:39:21;25.70;99.90
48007;DHT22;33771;48.180;11.400;2022-10-16T13:42:01;25.60;99.90
48007;DHT22;33771;48.180;11.400;2022-10-16T13:44:27;25.50;99.90
48007;DHT22;33771;48.180;11.400;2022-10-16T13:47:00;25.40;99.90
48007;DHT22;33771;48.180;11.400;2022-10-16T13:49:27;25.30;99.90
48007;DHT22;33771;48.180;11.400;2022-10-16T13:51:57;25.20;99.90
48007;DHT22;33771;48.180;11.400;2022-10-16T13:54:24;25.20;99.90
48007;DHT22;33771;48.180;11.400;2022-10-16T13:56:50;25.10;99.90
48007;DHT22;33771;48.180;11.400;2022-10-16T13:59:32;25.10;99.90
48007;DHT22;33771;48.180;11.400;2022-10-16T14:01:59;25.10;99.90
48007;DHT22;33771;48.180;11.400;2022-10-16T14:04:28;25.00;99.90
48007;DHT22;33771;48.180;11.400;2022-10-16T14:06:55;24.90;99.90
48007;DHT22;33771;48.180;11.400;2022-10-16T14:09:26;24.70;99.90
48007;DHT22;33771;48.180;11.400;2022-10-16T14:12:07;24.60;99.90
48007;DHT22;33771;48.180;11.400;2022-10-16T14:14:42;24.40;99.90
48007;DHT22;33771;48.180;11.400;2022-10-16T14:19:49;24.10;99.90
48007;DHT22;33771;48.180;11.400;2022-10-16T14:22:36;24.10;99.90
48007;DHT22;33771;48.180;11.400;2022-10-16T14:25:20;24.10;99.90
48007;DHT22;33771;48.180;11.400;2022-10-16T14:28:22;24.10;99.90
48007;DHT22;33771;48.180;11.400;2022-10-16T14:30:59;24.00;99.90
48007;DHT22;33771;48.180;11.400;2022-10-16T14:36:13;23.80;99.90
48007;DHT22;33771;48.180;11.400;2022-10-16T14:38:42;23.80;99.90
48007;DHT22;33771;48.180;11.400;2022-10-16T14:41:08;23.80;99.90
48007;DHT22;33771;48.180;11.400;2022-10-16T14:43:42;23.60;99.90
48007;DHT22;33771;48.180;11.400;2022-10-16T14:46:13;23.50;99.90
48007;DHT22;33771;48.180;11.400;2022-10-16T14:48:44;23.30;99.90
48007;DHT22;33771;48.180;11.400;2022-10-16T14:51:15;23.10;99.90
48007;DHT22;33771;48.180;11.400;2022-10-16T14:53:41;23.00;99.90
48007;DHT22;33771;48.180;11.400;2022-10-16T14:56:09;22.80;99.90
48007;DHT22;33771;48.180;11.400;2022-10-16T14:58:39;22.60;99.90
48007;DHT22;33771;48.180;11.400;2022-10-16T15:01:05;22.40;99.90
48007;DHT22;33771;48.180;11.400;2022-10-16T15:03:32;22.20;99.90
48007;DHT22;33771;48.180;11.400;2022-10-16T15:05:57;22.10;99.90
48007;DHT22;33771;48.180;11.400;2022-10-16T15:08:23;21.90;99.90
48007;DHT22;33771;48.180;11.400;2022-10-16T15:10:48;21.80;99.90
48007;DHT22;33771;48.180;11.400;2022-10-16T15:13:14;21.60;99.90
48007;DHT22;33771;48.180;11.400;2022-10-16T15:15:45;21.50;99.90
48007;DHT22;33771;48.180;11.400;2022-10-16T15:18:12;21.40;99.90
48007;DHT22;33771;48.180;11.400;2022-10-16T15:20:39;21.20;99.90
48007;DHT22;33771;48.180;11.400;2022-10-16T15:23:17;21.10;99.90
48007;DHT22;33771;48.180;11.400;2022-10-16T15:25:47;21.00;99.90
48007;DHT22;33771;48.180;11.400;2022-10-16T15:28:14;20.90;99.90
48007;DHT22;33771;48.180;11.400;2022-10-16T15:30:40;20.80;99.90
48007;DHT22;33771;48.180;11.400;2022-10-16T15:33:12;20.80;99.90
48007;DHT22;33771;48.180;11.400;2022-10-16T15:35:39;20.70;99.90
48007;DHT22;33771;48.180;11.400;2022-10-16T15:38:04;20.60;99.90
48007;DHT22;33771;48.180;11.400;2022-10-16T15:40:30;20.50;99.90
48007;DHT22;33771;48.180;11.400;2022-10-16T15:42:56;20.40;99.90
48007;DHT22;33771;48.180;11.400;2022-10-16T15:45:21;20.30;99.90
48007;DHT22;33771;48.180;11.400;2022-10-16T15:47:47;20.30;99.90
48007;DHT22;33771;48.180;11.400;2022-10-16T15:50:14;20.10;99.90
48007;DHT22;33771;48.180;11.400;2022-10-16T15:52:40;20.00;99.90
48007;DHT22;33771;48.180;11.400;2022-10-16T15:55:12;19.90;99.90
48007;DHT22;33771;48.180;11.400;2022-10-16T15:57:38;19.80;99.90
48007;DHT22;33771;48.180;11.400;2022-10-16T16:00:11;19.70;99.90
48007;DHT22;33771;48.180;11.400;2022-10-16T16:02:37;19.60;99.90
48007;DHT22;33771;48.180;11.400;2022-10-16T16:05:03;19.50;99.90
48007;DHT22;33771;48.180;11.400;2022-10-16T16:07:34;19.40;99.90
48007;DHT22;33771;48.180;11.400;2022-10-16T16:10:00;19.30;99.90
48007;DHT22;33771;48.180;11.400;2022-10-16T16:12:25;19.20;99.90
48007;DHT22;33771;48.180;11.400;2022-10-16T16:14:51;19.00;99.90
48007;DHT22;33771;48.180;11.400;2022-10-16T16:17:17;18.90;99.90
48007;DHT22;33771;48.180;11.400;2022-10-16T16:19:43;18.80;99.90
48007;DHT22;33771;48.180;11.400;2022-10-16T16:22:08;18.70;99.90
48007;DHT22;33771;48.180;11.400;2022-10-16T16:24:34;18.50;99.90
48007;DHT22;33771;48.180;11.400;2022-10-16T16:27:00;18.40;99.90
48007;DHT22;33771;48.180;11.400;2022-10-16T16:29:25;18.30;99.90
48007;DHT22;33771;48.180;11.400;2022-10-16T16:31:51;18.20;99.90
48007;DHT22;33771;48.180;11.400;2022-10-16T16:34:23;18.10;99.90
48007;DHT22;33771;48.180;11.400;2022-10-16T16:36:49;18.00;99.90
48007;DHT22;33771;48.180;11.400;2022-10-16T16:39:15;17.80;99.90
48007;DHT22;33771;48.180;11.400;2022-10-16T16:41:41;17.70;99.90
48007;DHT22;33771;48.180;11.400;2022-10-16T16:44:09;17.60;99.90
48007;DHT22;33771;48.180;11.400;2022-10-16T16:46:36;17.50;99.90
48007;DHT22;33771;48.180;11.400;2022-10-16T16:49:02;17.50;99.90
48007;DHT22;33771;48.180;11.400;2022-10-16T16:51:28;17.40;99.90
48007;DHT22;33771;48.180;11.400;2022-10-16T16:53:55;17.30;99.90
48007;DHT22;33771;48.180;11.400;2022-10-16T16:56:21;17.20;99.90
48007;DHT22;33771;48.180;11.400;2022-10-16T16:58:48;17.20;99.90
48007;DHT22;33771;48.180;11.400;2022-10-16T17:01:15;17.10;99.90
48007;DHT22;33771;48.180;11.400;2022-10-16T17:03:42;17.00;99.90
48007;DHT22;33771;48.180;11.400;2022-10-16T17:06:12;17.00;99.90
48007;DHT22;33771;48.180;11.400;2022-10-16T17:08:38;16.90;99.90
48007;DHT22;33771;48.180;11.400;2022-10-16T17:11:04;16.80;99.90
48007;DHT22;33771;48.180;11.400;2022-10-16T17:13:33;16.80;99.90